createdAt,value
2023-03-12T00:00:42.712Z,9.57
2023-03-12T00:03:11.017Z,12.30
2023-03-12T00:05:40.153Z,11.73
2023-03-12T00:08:09.092Z,13.60
2023-03-12T00:10:39.428Z,15.97
2023-03-12T00:13:09.959Z,9.90
2023-03-12T00:15:38.505Z,12.47
2023-03-12T00:18:06.959Z,11.63
2023-03-12T00:20:35.028Z,11.73
2023-03-12T00:23:03.037Z,12.17
2023-03-12T00:25:31.096Z,9.57
2023-03-12T00:27:59.112Z,16.80
2023-03-12T00:30:29.606Z,13.07
2023-03-12T00:32:57.837Z,9.07
2023-03-12T00:35:25.966Z,10.60
2023-03-12T00:37:53.996Z,8.40
2023-03-12T00:40:22.059Z,10.33
2023-03-12T00:42:50.070Z,11.63
2023-03-12T00:45:18.190Z,12.83
2023-03-12T00:47:47.589Z,14.83
2023-03-12T00:50:15.757Z,9.67
2023-03-12T00:52:44.184Z,11.17
2023-03-12T00:55:12.225Z,12.23
2023-03-12T00:57:40.298Z,13.63
2023-03-12T01:00:10.785Z,16.30
2023-03-12T01:02:39.405Z,13.07
2023-03-12T01:05:12.422Z,9.50
2023-03-12T01:07:40.535Z,13.23
2023-03-12T01:10:09.559Z,10.43
2023-03-12T01:12:37.642Z,11.20
2023-03-12T01:15:06.375Z,17.50
2023-03-12T01:17:34.517Z,15.17
2023-03-12T01:20:02.689Z,11.10
2023-03-12T01:22:32.185Z,13.57
2023-03-12T01:25:00.287Z,13.73
2023-03-12T01:27:28.401Z,13.50
2023-03-12T01:29:56.834Z,11.70
2023-03-12T01:32:25.214Z,12.60
2023-03-12T01:34:53.288Z,14.93
2023-03-12T01:37:21.388Z,16.03
2023-03-12T01:39:51.016Z,12.97
2023-03-12T01:42:19.186Z,11.87
2023-03-12T01:44:52.343Z,13.20
2023-03-12T01:47:20.726Z,13.60
2023-03-12T01:49:51.022Z,14.90
2023-03-12T01:52:23.091Z,13.83
2023-03-12T01:54:59.036Z,13.23
2023-03-12T01:57:32.950Z,13.80
2023-03-12T02:00:07.394Z,15.53
2023-03-12T02:02:42.579Z,16.60
2023-03-12T02:05:18.352Z,14.63
2023-03-12T02:07:46.748Z,17.83
2023-03-12T02:10:17.132Z,14.10
2023-03-12T02:12:45.440Z,14.83
2023-03-12T02:15:13.582Z,17.93
2023-03-12T02:17:42.025Z,21.33
2023-03-12T02:20:16.442Z,16.60
2023-03-12T02:22:50.422Z,20.23
2023-03-12T02:25:30.994Z,19.33
2023-03-12T02:28:01.109Z,16.57
2023-03-12T02:30:31.094Z,15.27
2023-03-12T02:33:02.710Z,15.77
2023-03-12T02:35:30.892Z,17.20
2023-03-12T02:37:59.054Z,13.13
2023-03-12T02:40:32.734Z,14.43
2023-03-12T02:43:01.971Z,13.60
2023-03-12T02:45:30.502Z,17.43
2023-03-12T02:47:58.571Z,14.77
2023-03-12T02:50:26.909Z,13.83
2023-03-12T02:52:55.020Z,16.83
2023-03-12T02:55:23.213Z,17.13
2023-03-12T02:57:52.776Z,14.67
2023-03-12T03:00:21.840Z,18.13
2023-03-12T03:02:52.926Z,17.47
2023-03-12T03:05:21.693Z,13.93
2023-03-12T03:07:50.012Z,15.07
2023-03-12T03:10:18.463Z,16.80
2023-03-12T03:12:46.767Z,14.43
2023-03-12T03:15:16.632Z,18.80
2023-03-12T03:17:44.790Z,11.80
2023-03-12T03:20:13.124Z,13.90
2023-03-12T03:22:41.176Z,13.47
2023-03-12T03:25:11.131Z,12.43
2023-03-12T03:27:39.224Z,12.27
2023-03-12T03:30:09.073Z,19.20
2023-03-12T03:32:43.228Z,11.53
2023-03-12T03:35:13.084Z,12.73
2023-03-12T03:37:41.185Z,15.63
2023-03-12T03:40:12.088Z,12.13
2023-03-12T03:42:41.315Z,12.97
2023-03-12T03:45:10.782Z,13.10
2023-03-12T03:47:40.381Z,11.73
2023-03-12T03:50:11.605Z,15.27
2023-03-12T03:52:39.680Z,11.10
2023-03-12T03:55:08.460Z,14.40
2023-03-12T03:57:36.488Z,11.93
2023-03-12T04:00:09.273Z,11.83
2023-03-12T04:02:41.655Z,13.03
2023-03-12T04:05:16.016Z,14.07
2023-03-12T04:07:44.170Z,12.20
2023-03-12T04:10:13.473Z,12.47
2023-03-12T04:12:41.867Z,11.87
2023-03-12T04:15:11.497Z,16.23
2023-03-12T04:17:39.586Z,14.53
2023-03-12T04:20:09.519Z,11.33
2023-03-12T04:22:39.193Z,13.10
2023-03-12T04:25:09.004Z,16.53
2023-03-12T04:27:37.140Z,15.10
2023-03-12T04:30:06.136Z,13.73
2023-03-12T04:32:36.147Z,13.47
2023-03-12T04:35:04.363Z,13.60
2023-03-12T04:37:34.587Z,11.73
2023-03-12T04:40:07.969Z,12.47
2023-03-12T04:42:36.613Z,12.17
2023-03-12T04:45:06.300Z,14.87
2023-03-12T04:47:35.319Z,12.17
2023-03-12T04:50:03.760Z,16.17
2023-03-12T04:52:32.689Z,16.33
2023-03-12T04:55:00.796Z,13.87
2023-03-12T04:57:30.288Z,13.13
2023-03-12T04:59:58.556Z,13.37
2023-03-12T05:02:26.693Z,12.77
2023-03-12T05:04:58.301Z,11.13
2023-03-12T05:07:26.755Z,12.70
2023-03-12T05:09:54.747Z,13.70
2023-03-12T05:12:22.851Z,12.20
2023-03-12T05:14:52.333Z,12.80
2023-03-12T05:17:20.452Z,10.57
2023-03-12T05:19:48.600Z,12.13
2023-03-12T05:22:16.652Z,11.83
2023-03-12T05:24:44.732Z,16.00
2023-03-12T05:27:13.296Z,11.97
2023-03-12T05:29:41.759Z,11.43
2023-03-12T05:32:11.292Z,13.90
2023-03-12T05:34:39.467Z,14.03
2023-03-12T05:37:07.804Z,11.77
2023-03-12T05:39:36.168Z,11.10
2023-03-12T05:42:06.690Z,10.20
2023-03-12T05:44:35.650Z,12.63
2023-03-12T05:47:03.786Z,11.33
2023-03-12T05:49:33.164Z,17.73
2023-03-12T05:52:01.471Z,13.67
2023-03-12T05:54:29.558Z,12.10
2023-03-12T05:56:57.991Z,11.93
2023-03-12T05:59:27.878Z,11.87
2023-03-12T06:01:56.840Z,15.30
2023-03-12T06:04:25.096Z,13.03
2023-03-12T06:06:56.118Z,11.87
2023-03-12T06:09:24.334Z,13.60
2023-03-12T06:11:53.787Z,17.03
2023-03-12T06:14:21.874Z,12.67
2023-03-12T06:16:51.040Z,17.37
2023-03-12T06:19:19.433Z,12.90
2023-03-12T06:21:50.008Z,15.20
2023-03-12T06:24:19.479Z,13.73
2023-03-12T06:26:51.285Z,16.53
2023-03-12T06:29:19.353Z,14.87
2023-03-12T06:31:48.329Z,12.47
2023-03-12T06:34:17.065Z,15.30
2023-03-12T06:36:45.313Z,13.90
2023-03-12T06:39:13.412Z,12.50
2023-03-12T06:41:42.880Z,15.83
2023-03-12T06:44:10.925Z,15.77
2023-03-12T06:46:39.163Z,14.40
2023-03-12T06:49:07.256Z,15.30
2023-03-12T06:51:35.319Z,16.80
2023-03-12T06:54:05.845Z,13.57
2023-03-12T06:56:34.215Z,15.93
2023-03-12T06:59:03.640Z,16.87
2023-03-12T07:01:31.767Z,17.40
2023-03-12T07:03:59.809Z,13.53
2023-03-12T07:06:28.000Z,14.90
2023-03-12T07:08:56.124Z,12.97
2023-03-12T07:11:24.337Z,14.30
2023-03-12T07:13:55.589Z,13.80
2023-03-12T07:16:30.626Z,17.67
2023-03-12T07:19:01.945Z,13.43
2023-03-12T07:21:36.653Z,15.30
2023-03-12T07:24:10.122Z,12.90
2023-03-12T07:26:48.163Z,13.73
2023-03-12T07:29:22.164Z,14.47
2023-03-12T07:31:55.102Z,16.70
2023-03-12T07:34:26.001Z,14.10
2023-03-12T07:36:54.978Z,16.10
2023-03-12T07:39:30.983Z,16.07
2023-03-12T07:42:05.587Z,14.43
2023-03-12T07:44:36.880Z,13.80
2023-03-12T07:47:22.332Z,13.93
2023-03-12T07:50:03.103Z,13.33
2023-03-12T07:52:31.338Z,14.10
2023-03-12T07:54:59.741Z,16.63
2023-03-12T07:57:28.011Z,14.43
2023-03-12T07:59:56.286Z,14.47
2023-03-12T08:02:25.828Z,16.93
2023-03-12T08:04:54.270Z,16.27
2023-03-12T08:07:22.545Z,16.93
2023-03-12T08:09:50.701Z,12.50
2023-03-12T08:12:18.884Z,16.83
2023-03-12T08:14:47.074Z,18.00
2023-03-12T08:17:15.228Z,16.60
2023-03-12T08:19:44.702Z,15.33
2023-03-12T08:22:12.972Z,15.33
2023-03-12T08:24:41.023Z,15.40
2023-03-12T08:27:09.154Z,14.87
2023-03-12T08:29:37.277Z,15.00
2023-03-12T08:32:05.916Z,14.70
2023-03-12T08:34:34.762Z,14.17
2023-03-12T08:37:05.041Z,16.20
2023-03-12T08:39:33.955Z,16.53
2023-03-12T08:42:02.025Z,16.37
2023-03-12T08:44:30.288Z,15.87
2023-03-12T08:47:00.548Z,16.07
2023-03-12T08:49:28.737Z,16.07
2023-03-12T08:51:57.041Z,14.10
2023-03-12T08:54:26.642Z,15.47
2023-03-12T08:56:55.067Z,20.27
2023-03-12T08:59:23.598Z,14.77
2023-03-12T09:01:51.734Z,14.13
2023-03-12T09:04:20.021Z,18.33
2023-03-12T09:06:48.208Z,14.40
2023-03-12T09:09:16.430Z,15.83
2023-03-12T09:11:45.984Z,15.37
2023-03-12T09:17:02.839Z,14.37
2023-03-12T09:19:31.238Z,14.73
2023-03-12T09:21:59.346Z,16.77
2023-03-12T09:24:27.429Z,14.40
2023-03-12T09:26:56.865Z,15.07
2023-03-12T09:29:24.994Z,15.90
2023-03-12T09:31:53.533Z,12.83
2023-03-12T09:34:21.686Z,13.23
2023-03-12T09:36:49.983Z,13.83
2023-03-12T09:39:18.115Z,13.17
2023-03-12T09:41:48.454Z,16.87
2023-03-12T09:44:26.693Z,16.27
2023-03-12T09:46:57.418Z,19.40
2023-03-12T09:49:34.383Z,17.33
2023-03-12T09:52:08.722Z,17.97
2023-03-12T09:54:42.791Z,17.93
2023-03-12T09:57:13.902Z,15.90
2023-03-12T09:59:43.513Z,14.47
2023-03-12T10:02:30.732Z,16.30
2023-03-12T10:05:01.815Z,14.90
2023-03-12T10:07:35.795Z,15.70
2023-03-12T10:10:15.302Z,14.93
2023-03-12T10:12:55.042Z,17.73
2023-03-12T10:15:37.886Z,18.20
2023-03-12T10:18:19.123Z,20.30
2023-03-12T10:21:09.383Z,15.20
2023-03-12T10:23:48.177Z,17.27
2023-03-12T10:26:20.357Z,16.23
2023-03-12T10:28:59.152Z,15.23
2023-03-12T10:31:33.249Z,17.93
2023-03-12T10:34:02.490Z,19.93
2023-03-12T10:36:36.860Z,16.00
2023-03-12T10:39:06.176Z,17.07
2023-03-12T10:41:35.115Z,19.20
2023-03-12T10:44:10.015Z,16.13
2023-03-12T10:46:53.311Z,19.90
2023-03-12T10:49:26.501Z,17.70
2023-03-12T10:51:56.439Z,17.80
2023-03-12T10:54:30.188Z,17.57
2023-03-12T10:56:58.563Z,17.20
2023-03-12T10:59:32.345Z,15.77
2023-03-12T11:02:02.292Z,17.33
2023-03-12T11:04:32.271Z,20.90
2023-03-12T11:07:26.141Z,16.67
2023-03-12T11:10:17.150Z,19.50
2023-03-12T11:12:58.102Z,23.43
2023-03-12T11:15:28.204Z,16.60
2023-03-12T11:18:24.067Z,18.43
2023-03-12T11:20:53.671Z,16.80
2023-03-12T11:23:25.449Z,17.90
2023-03-12T11:25:56.582Z,15.33
2023-03-12T11:28:29.387Z,16.67
2023-03-12T11:30:59.445Z,16.67
2023-03-12T11:33:29.690Z,14.77
2023-03-12T11:36:09.859Z,16.10
2023-03-12T11:38:42.622Z,16.33
2023-03-12T11:41:22.471Z,17.33
2023-03-12T11:44:18.233Z,12.63
2023-03-12T11:46:56.678Z,2.23
2023-03-12T11:49:42.236Z,0.77
2023-03-12T11:52:17.805Z,0.20
2023-03-12T11:55:04.564Z,0.30
2023-03-12T11:57:43.214Z,1.50
2023-03-12T12:00:17.448Z,0.57
2023-03-12T12:03:06.891Z,0.97
2023-03-12T12:05:48.203Z,1.13
2023-03-12T12:08:35.082Z,1.10
2023-03-12T12:11:12.313Z,0.83
2023-03-12T12:13:49.771Z,0.90
2023-03-12T12:16:44.062Z,0.10
2023-03-12T12:19:23.967Z,0.47
2023-03-12T12:22:12.281Z,0.63
2023-03-12T12:24:52.615Z,0.57
2023-03-12T12:27:22.697Z,1.37
2023-03-12T12:30:14.444Z,4.23
2023-03-12T12:33:05.867Z,2.83
2023-03-12T12:35:37.963Z,0.67
2023-03-12T12:38:13.690Z,1.03
2023-03-12T12:40:44.843Z,5.23
2023-03-12T12:43:25.104Z,1.70
2023-03-12T12:45:56.823Z,3.27
2023-03-12T12:48:30.709Z,1.30
2023-03-12T12:51:00.937Z,0.47
2023-03-12T12:53:38.714Z,1.30
2023-03-12T12:56:15.516Z,0.20
2023-03-12T12:59:21.567Z,1.20
2023-03-12T13:01:52.392Z,0.67
2023-03-12T13:04:26.390Z,1.17
2023-03-12T13:06:59.646Z,0.53
2023-03-12T13:09:43.531Z,4.23
2023-03-12T13:12:23.018Z,1.57
2023-03-12T13:14:51.748Z,1.07
2023-03-12T13:17:27.453Z,1.67
2023-03-12T13:20:01.983Z,1.23
2023-03-12T13:23:02.270Z,0.97
2023-03-12T13:25:48.764Z,1.37
2023-03-12T13:29:11.864Z,1.33
2023-03-12T13:31:42.356Z,2.13
2023-03-12T13:34:47.321Z,2.60
2023-03-12T13:37:58.216Z,1.20
2023-03-12T13:41:02.757Z,2.73
2023-03-12T13:43:50.931Z,3.37
2023-03-12T13:46:42.874Z,2.40
2023-03-12T13:49:19.971Z,2.70
2023-03-12T13:52:09.331Z,0.53
2023-03-12T13:54:44.234Z,0.73
2023-03-12T13:57:27.047Z,1.23
2023-03-12T13:59:57.124Z,0.87
2023-03-12T14:02:31.451Z,2.23
2023-03-12T14:05:05.732Z,5.73
2023-03-12T14:08:07.046Z,0.20
2023-03-12T14:10:44.746Z,0.97
2023-03-12T14:13:35.259Z,1.67
2023-03-12T14:16:10.756Z,1.13
2023-03-12T14:18:40.717Z,0.80
2023-03-12T14:21:11.728Z,0.50
2023-03-12T14:23:42.506Z,0.90
2023-03-12T14:26:21.719Z,1.00
2023-03-12T14:28:58.860Z,0.55
2023-03-12T14:31:28.781Z,0.80
2023-03-12T14:34:00.567Z,1.65
2023-03-12T14:36:32.085Z,0.20
2023-03-12T14:39:12.689Z,2.13
2023-03-12T14:41:46.571Z,0.47
2023-03-12T14:44:23.947Z,1.85
2023-03-12T14:47:00.269Z,0.32
2023-03-12T14:49:29.489Z,2.63
2023-03-12T14:51:58.275Z,1.23
2023-03-12T14:54:28.707Z,0.63
2023-03-12T14:56:57.066Z,2.05
2023-03-12T14:59:31.105Z,0.13
2023-03-12T15:02:03.098Z,0.75
2023-03-12T15:04:34.441Z,2.97
2023-03-12T15:07:05.741Z,0.25
2023-03-12T15:09:37.065Z,2.28
2023-03-12T15:12:08.325Z,1.70
2023-03-12T15:14:42.282Z,2.13
2023-03-12T15:17:17.856Z,0.20
2023-03-12T15:19:47.501Z,0.47
2023-03-12T15:22:19.061Z,0.63
2023-03-12T15:24:47.755Z,1.10
2023-03-12T15:27:31.357Z,0.77
2023-03-12T15:30:02.223Z,1.00
2023-03-12T15:32:32.020Z,0.20
2023-03-12T15:35:00.976Z,0.47
2023-03-12T15:37:32.854Z,3.40
2023-03-12T15:40:06.291Z,0.10
2023-03-12T15:42:39.853Z,0.90
2023-03-12T15:45:19.664Z,0.45
2023-03-12T15:47:49.049Z,1.23
2023-03-12T15:50:22.996Z,1.73
2023-03-12T15:53:02.979Z,1.55
2023-03-12T15:55:33.214Z,0.82
2023-03-12T15:58:01.843Z,3.67
2023-03-12T16:00:33.273Z,1.25
2023-03-12T16:03:04.061Z,10.13
2023-03-12T16:05:34.531Z,0.10
2023-03-12T16:08:11.547Z,0.65
2023-03-12T16:10:40.537Z,0.30
2023-03-12T16:13:11.663Z,1.48
2023-03-12T16:15:42.159Z,3.00
2023-03-12T16:18:14.588Z,1.27
2023-03-12T16:20:43.264Z,2.00
2023-03-12T16:23:11.779Z,5.28
2023-03-12T16:25:40.815Z,0.30
2023-03-12T16:28:09.157Z,0.63
2023-03-12T16:30:38.343Z,0.63
2023-03-12T16:33:09.456Z,0.28
2023-03-12T16:35:38.728Z,1.85
2023-03-12T16:38:07.303Z,0.47
2023-03-12T16:40:38.548Z,1.00
2023-03-12T16:43:12.362Z,0.60
2023-03-12T16:45:44.722Z,0.28
2023-03-12T16:48:17.546Z,1.23
2023-03-12T16:50:51.429Z,1.80
2023-03-12T16:53:20.222Z,0.20
2023-03-12T16:55:51.416Z,3.33
2023-03-12T16:58:21.720Z,3.00
2023-03-12T17:00:50.633Z,0.65
2023-03-12T17:03:29.177Z,1.33
2023-03-12T17:05:57.606Z,1.70
2023-03-12T17:08:26.145Z,2.25
2023-03-12T17:10:55.625Z,1.08
2023-03-12T17:13:26.113Z,2.72
2023-03-12T17:15:55.675Z,11.50
2023-03-12T17:18:25.623Z,1.38
2023-03-12T17:20:55.399Z,0.65
2023-03-12T17:23:24.678Z,0.43
2023-03-12T17:25:53.014Z,13.40
2023-03-12T17:28:21.381Z,1.60
2023-03-12T17:30:49.747Z,6.18
2023-03-12T17:33:20.171Z,4.50
2023-03-12T17:35:58.130Z,2.38
2023-03-12T17:38:26.444Z,2.70
2023-03-12T17:40:55.214Z,8.65
2023-03-12T17:43:23.759Z,4.88
2023-03-12T17:45:52.559Z,3.55
2023-03-12T17:48:23.157Z,3.45
2023-03-12T17:50:52.833Z,6.07
2023-03-12T17:53:21.091Z,7.05
2023-03-12T17:55:49.351Z,6.03
2023-03-12T17:58:17.737Z,11.02
2023-03-12T18:00:46.043Z,0.68
2023-03-12T18:03:14.333Z,2.47
2023-03-12T18:05:43.188Z,0.50
2023-03-12T18:08:12.941Z,6.57
2023-03-12T18:10:41.407Z,2.05
2023-03-12T18:13:09.670Z,1.90
2023-03-12T18:15:38.130Z,16.23
2023-03-12T18:18:06.622Z,3.13
2023-03-12T18:20:39.362Z,3.00
2023-03-12T18:23:08.399Z,6.57
2023-03-12T18:25:38.353Z,5.68
2023-03-12T18:28:06.955Z,17.70
2023-03-12T18:30:35.739Z,2.03
2023-03-12T18:33:04.043Z,3.17
2023-03-12T18:35:32.473Z,0.95
2023-03-12T18:38:03.924Z,1.23
2023-03-12T18:40:33.640Z,3.97
2023-03-12T18:43:03.322Z,10.65
2023-03-12T18:45:32.105Z,5.30
2023-03-12T18:48:00.473Z,12.18
2023-03-12T18:50:28.826Z,6.63
2023-03-12T18:52:57.073Z,1.45
2023-03-12T18:55:25.528Z,1.65
2023-03-12T18:57:53.968Z,1.58
2023-03-12T19:00:23.817Z,0.43
2023-03-12T19:02:52.164Z,0.65
2023-03-12T19:05:20.735Z,7.07
2023-03-12T19:07:49.138Z,0.20
2023-03-12T19:10:17.737Z,2.58
2023-03-12T19:12:52.585Z,8.07
2023-03-12T19:15:21.868Z,0.98
2023-03-12T19:17:51.899Z,1.00
2023-03-12T19:20:20.359Z,4.38
2023-03-12T19:22:48.697Z,0.47
2023-03-12T19:25:17.343Z,2.40
2023-03-12T19:27:45.762Z,0.65
2023-03-12T19:30:14.909Z,1.60
2023-03-12T19:32:44.717Z,1.70
2023-03-12T19:35:16.013Z,13.07
2023-03-12T19:37:44.397Z,7.00
2023-03-12T19:40:14.040Z,2.20
2023-03-12T19:42:42.352Z,0.60
2023-03-12T19:45:14.430Z,1.08
2023-03-12T19:47:42.769Z,4.55
2023-03-12T19:50:12.827Z,0.75
2023-03-12T19:52:42.534Z,12.23
2023-03-12T19:55:12.040Z,0.60
2023-03-12T19:57:41.059Z,44.42
2023-03-12T20:00:12.375Z,33.95
2023-03-12T20:02:41.413Z,34.90
2023-03-12T20:05:11.075Z,37.25
2023-03-12T20:07:39.513Z,39.40
2023-03-12T20:10:11.184Z,39.80
2023-03-12T20:12:39.712Z,37.80
2023-03-12T20:15:09.217Z,37.90
2023-03-12T20:17:37.474Z,41.67
2023-03-12T20:20:08.828Z,38.13
2023-03-12T20:22:37.319Z,42.92
2023-03-12T20:25:06.850Z,41.17
2023-03-12T20:27:36.619Z,43.63
2023-03-12T20:30:05.508Z,31.80
2023-03-12T20:32:33.983Z,39.95
2023-03-12T20:35:02.326Z,32.75
2023-03-12T20:37:30.592Z,33.08
2023-03-12T20:39:58.869Z,35.33
2023-03-12T20:42:27.231Z,41.95
2023-03-12T20:44:56.922Z,37.70
2023-03-12T20:47:25.354Z,30.95
2023-03-12T20:49:53.700Z,38.63
2023-03-12T20:52:22.052Z,37.90
2023-03-12T20:54:50.281Z,36.05
2023-03-12T20:57:18.577Z,35.85
2023-03-12T20:59:46.853Z,40.42
2023-03-12T21:02:16.786Z,44.17
2023-03-12T21:04:45.484Z,35.35
2023-03-12T21:07:13.909Z,35.05
2023-03-12T21:09:42.163Z,47.42
2023-03-12T21:12:10.526Z,41.85
2023-03-12T21:14:39.936Z,36.60
2023-03-12T21:17:13.208Z,35.15
2023-03-12T21:19:43.317Z,34.85
2023-03-12T21:22:11.927Z,34.33
2023-03-12T21:24:40.290Z,29.35
2023-03-12T21:27:11.433Z,32.85
2023-03-12T21:29:39.830Z,37.17
2023-03-12T21:32:08.363Z,28.08
2023-03-12T21:34:37.132Z,32.83
2023-03-12T21:37:06.804Z,31.65
2023-03-12T21:39:36.174Z,28.75
2023-03-12T21:42:04.578Z,34.38
2023-03-12T21:44:32.979Z,33.20
2023-03-12T21:47:01.228Z,35.38
2023-03-12T21:49:29.596Z,30.10
2023-03-12T21:51:58.629Z,25.77
2023-03-12T21:54:32.821Z,28.70
2023-03-12T21:57:02.979Z,29.17
2023-03-12T21:59:31.689Z,26.45
2023-03-12T22:02:00.227Z,25.60
2023-03-12T22:04:29.553Z,31.70
2023-03-12T22:06:57.810Z,21.77
2023-03-12T22:09:27.689Z,29.13
2023-03-12T22:11:56.252Z,31.15
2023-03-12T22:14:31.757Z,21.30
2023-03-12T22:17:02.480Z,27.55
2023-03-12T22:19:31.313Z,18.38
2023-03-12T22:21:59.617Z,23.98
2023-03-12T22:24:29.378Z,20.67
2023-03-12T22:26:57.664Z,27.98
2023-03-12T22:29:25.952Z,32.47
2023-03-12T22:31:54.242Z,23.92
2023-03-12T22:34:22.503Z,21.13
2023-03-12T22:36:50.850Z,24.42
2023-03-12T22:39:19.225Z,20.40
2023-03-12T22:41:51.828Z,21.23
2023-03-12T22:44:20.179Z,25.08
2023-03-12T22:46:48.446Z,25.02
2023-03-12T22:49:16.765Z,25.40
2023-03-12T22:51:45.145Z,23.98
2023-03-12T22:54:13.469Z,24.63
2023-03-12T22:56:41.713Z,23.27
2023-03-12T22:59:12.057Z,19.30
2023-03-12T23:01:40.417Z,17.92
2023-03-12T23:04:08.721Z,20.23
2023-03-12T23:06:37.087Z,25.13
2023-03-12T23:09:05.518Z,24.02
2023-03-12T23:11:33.850Z,21.13
2023-03-12T23:14:02.210Z,22.83
2023-03-12T23:16:32.012Z,28.85
2023-03-12T23:19:00.489Z,19.92
2023-03-12T23:21:28.822Z,25.10
2023-03-12T23:23:57.112Z,27.08
2023-03-12T23:26:27.418Z,22.35
2023-03-12T23:28:56.335Z,27.52
2023-03-12T23:31:24.980Z,28.58
2023-03-12T23:33:54.966Z,26.27
2023-03-12T23:36:24.511Z,24.50
2023-03-12T23:38:52.827Z,30.25
2023-03-12T23:41:22.995Z,22.13
2023-03-12T23:43:51.968Z,25.88
2023-03-12T23:46:20.858Z,22.05
2023-03-12T23:48:49.176Z,24.75
2023-03-12T23:51:20.426Z,24.83
2023-03-12T23:53:51.464Z,22.45
2023-03-12T23:56:21.736Z,23.67
2023-03-12T23:58:51.341Z,26.08
